Time;durP1;ratioP1;P1;durP2;ratioP2;P2;SDS_P1;SDS_P2;PMS_P1;PMS_P2;Temp;Humidity;BMP_temperature;BMP_pressure;BME280_temperature;BME280_humidity;BME280_pressure;Samples;Min_cycle;Max_cycle;Signal;HPM_P1;HPM_P2
2022/05/13 00:00:28;;;;;;;5.10;2.10;;;21.00;99.90;;;;;;5015592;28;20205;-76
2022/05/13 00:02:55;;;;;;;6.53;2.13;;;21.00;99.90;;;;;;5015502;28;20226;-76
2022/05/13 00:05:23;;;;;;;5.25;2.03;;;21.00;99.90;;;;;;5015505;28;20237;-76
2022/05/13 00:07:50;;;;;;;3.05;2.33;;;21.00;99.90;;;;;;5015366;28;20281;-76
2022/05/13 00:10:17;;;;;;;2.28;2.10;;;21.00;99.90;;;;;;5015495;28;20208;-77
2022/05/13 00:12:44;;;;;;;8.45;2.47;;;21.00;99.90;;;;;;5015370;28;20232;-76
2022/05/13 00:15:15;;;;;;;7.65;2.20;;;21.00;99.90;;;;;;5015379;28;20197;-76
2022/05/13 00:17:42;;;;;;;2.45;2.25;;;21.00;99.90;;;;;;5015393;28;20196;-76
2022/05/13 00:20:11;;;;;;;2.20;2.08;;;21.00;99.90;;;;;;5014755;28;20205;-76
2022/05/13 00:22:43;;;;;;;5.68;2.08;;;21.00;99.90;;;;;;5015204;28;20228;-76
2022/05/13 00:25:11;;;;;;;6.68;2.03;;;21.00;99.90;;;;;;5015114;28;20277;-76
2022/05/13 00:27:37;;;;;;;8.10;1.90;;;21.00;99.90;;;;;;5015191;28;20226;-76
2022/05/13 00:30:06;;;;;;;3.80;2.10;;;21.00;99.90;;;;;;5014948;28;20212;-76
2022/05/13 00:32:35;;;;;;;6.82;1.85;;;21.00;99.90;;;;;;5015063;28;20218;-75
2022/05/13 00:35:01;;;;;;;6.07;1.98;;;21.00;99.90;;;;;;5015144;28;20210;-75
2022/05/13 00:37:28;;;;;;;4.88;2.08;;;21.00;99.90;;;;;;5014712;28;20201;-75
2022/05/13 00:39:55;;;;;;;2.08;1.92;;;21.00;99.90;;;;;;5015067;28;20292;-75
2022/05/13 00:42:24;;;;;;;11.00;2.00;;;21.00;99.90;;;;;;5014658;28;20236;-76
2022/05/13 00:44:51;;;;;;;2.13;1.85;;;21.00;99.90;;;;;;5014928;28;20209;-76
2022/05/13 00:47:18;;;;;;;2.95;1.63;;;21.00;99.90;;;;;;5014807;28;20225;-76
2022/05/13 00:49:46;;;;;;;3.55;1.90;;;21.00;99.90;;;;;;5014784;28;20568;-76
2022/05/13 00:52:14;;;;;;;2.42;2.17;;;21.00;99.90;;;;;;5014710;28;20232;-76
2022/05/13 00:54:42;;;;;;;1.98;1.88;;;21.00;99.90;;;;;;5014418;28;20205;-76
2022/05/13 00:57:11;;;;;;;1.85;1.65;;;21.00;99.90;;;;;;5014672;28;20202;-76
2022/05/13 00:59:40;;;;;;;4.70;2.05;;;21.00;99.90;;;;;;5014803;28;20201;-76
2022/05/13 01:02:08;;;;;;;2.75;1.90;;;21.00;99.90;;;;;;5014559;28;20217;-76
2022/05/13 01:04:37;;;;;;;4.60;1.98;;;20.90;99.90;;;;;;5014386;28;20692;-76
2022/05/13 01:07:09;;;;;;;2.00;1.95;;;21.00;99.90;;;;;;5014116;28;20726;-76
2022/05/13 01:09:41;;;;;;;2.72;2.00;;;21.00;99.90;;;;;;5014170;28;20638;-76
2022/05/13 01:12:12;;;;;;;2.45;2.10;;;21.00;99.90;;;;;;5014386;28;20669;-76
2022/05/13 01:14:42;;;;;;;3.50;2.10;;;21.00;99.90;;;;;;5014500;28;20196;-76
2022/05/13 01:20:10;;;;;;;3.78;2.15;;;21.00;99.90;;;;;;5014616;28;20687;-76
2022/05/13 01:22:44;;;;;;;3.17;2.00;;;21.00;99.90;;;;;;5014333;28;20221;-76
2022/05/13 01:25:13;;;;;;;4.90;2.22;;;21.00;99.90;;;;;;5014006;28;20668;-76
2022/05/13 01:27:42;;;;;;;2.20;1.80;;;21.00;99.90;;;;;;5014217;28;20225;-76
2022/05/13 01:30:11;;;;;;;5.25;2.20;;;21.00;99.90;;;;;;5014314;28;20206;-75
2022/05/13 01:32:38;;;;;;;2.30;2.00;;;21.00;99.90;;;;;;5013666;28;20263;-75
2022/05/13 01:35:06;;;;;;;2.40;2.30;;;21.00;99.90;;;;;;5014261;28;20207;-76
2022/05/13 01:37:33;;;;;;;2.20;1.98;;;21.00;99.90;;;;;;5014810;28;20207;-76
2022/05/13 01:40:03;;;;;;;14.15;2.28;;;21.00;99.90;;;;;;5014550;28;20207;-76
2022/05/13 01:42:30;;;;;;;8.27;2.03;;;21.00;99.90;;;;;;5013758;28;20229;-76
2022/05/13 01:44:58;;;;;;;3.15;1.80;;;21.00;99.90;;;;;;5013556;28;20205;-76
2022/05/13 01:47:25;;;;;;;6.53;2.20;;;21.00;99.90;;;;;;5013518;28;20217;-76
2022/05/13 01:49:52;;;;;;;2.38;1.80;;;21.00;99.90;;;;;;5013858;28;20198;-76
2022/05/13 01:52:19;;;;;;;6.70;2.22;;;21.00;99.90;;;;;;5013932;28;20253;-75
2022/05/13 01:54:47;;;;;;;8.07;1.90;;;21.00;99.90;;;;;;5013736;28;20202;-75
2022/05/13 01:57:15;;;;;;;4.40;1.63;;;21.00;99.90;;;;;;5014093;28;20200;-75
2022/05/13 01:59:42;;;;;;;2.35;1.95;;;21.00;99.90;;;;;;5013593;28;20197;-75
2022/05/13 02:02:09;;;;;;;7.38;2.05;;;21.00;99.90;;;;;;5013875;28;20308;-75
2022/05/13 02:04:35;;;;;;;10.05;2.15;;;21.00;99.90;;;;;;5014030;28;20228;-75
2022/05/13 02:07:01;;;;;;;3.25;1.83;;;21.00;99.90;;;;;;5013862;28;20236;-75
2022/05/13 02:09:28;;;;;;;4.20;1.85;;;21.00;99.90;;;;;;5014530;28;20255;-75
2022/05/13 02:11:55;;;;;;;2.08;1.95;;;21.00;99.90;;;;;;5013543;28;20739;-75
2022/05/13 02:14:23;;;;;;;2.80;1.67;;;21.00;99.90;;;;;;5013929;28;20202;-75
2022/05/13 02:16:50;;;;;;;1.80;1.70;;;21.00;99.90;;;;;;5013719;28;20288;-75
2022/05/13 02:19:17;;;;;;;3.05;1.50;;;21.00;99.90;;;;;;5013440;28;20293;-75
2022/05/13 02:21:44;;;;;;;3.95;1.67;;;21.00;99.90;;;;;;5013279;28;20209;-75
2022/05/13 02:24:11;;;;;;;7.55;1.63;;;21.00;99.90;;;;;;5013585;28;20288;-75
2022/05/13 02:26:39;;;;;;;5.05;1.85;;;20.90;99.90;;;;;;5013705;28;20227;-75
2022/05/13 02:29:06;;;;;;;3.20;2.15;;;21.00;99.90;;;;;;5013604;28;20226;-76
2022/05/13 02:31:34;;;;;;;1.88;1.70;;;21.00;99.90;;;;;;5013447;28;20662;-76
2022/05/13 02:34:01;;;;;;;3.80;1.90;;;21.00;99.90;;;;;;5013595;28;20567;-76
2022/05/13 02:36:28;;;;;;;3.58;1.85;;;21.00;99.90;;;;;;5013989;28;20201;-76
2022/05/13 02:38:55;;;;;;;2.75;1.50;;;21.00;99.90;;;;;;5013548;28;20194;-76
2022/05/13 02:41:22;;;;;;;2.80;1.83;;;20.90;99.90;;;;;;5013438;28;20287;-75
2022/05/13 02:43:50;;;;;;;5.68;1.92;;;21.00;99.90;;;;;;5016329;28;20256;-75
2022/05/13 02:46:21;;;;;;;3.65;1.73;;;21.00;99.90;;;;;;5017163;28;20284;-75
2022/05/13 02:48:50;;;;;;;2.20;1.77;;;21.00;99.90;;;;;;5016819;28;20209;-75
2022/05/13 02:51:17;;;;;;;7.00;1.67;;;21.00;99.90;;;;;;5017042;28;20292;-75
2022/05/13 02:53:45;;;;;;;2.28;2.00;;;21.00;99.90;;;;;;5016906;28;20263;-75
2022/05/13 02:56:12;;;;;;;4.32;1.50;;;21.00;99.90;;;;;;5016963;28;20205;-75
2022/05/13 02:58:40;;;;;;;7.30;1.80;;;21.00;99.90;;;;;;5017009;28;20206;-75
2022/05/13 03:01:10;;;;;;;4.32;1.55;;;21.00;99.90;;;;;;5016934;28;20203;-75
2022/05/13 03:03:38;;;;;;;5.45;1.77;;;21.00;99.90;;;;;;5016866;28;20225;-75
2022/05/13 03:06:07;;;;;;;4.18;2.08;;;21.00;99.90;;;;;;5016816;28;20212;-75
2022/05/13 03:08:34;;;;;;;6.68;2.03;;;21.00;99.90;;;;;;5016911;28;20217;-75
2022/05/13 03:11:02;;;;;;;3.03;1.85;;;21.00;99.90;;;;;;5016683;28;20284;-75
2022/05/13 03:13:29;;;;;;;4.90;1.65;;;21.00;99.90;;;;;;5016460;28;20227;-75
2022/05/13 03:15:55;;;;;;;3.00;1.88;;;21.00;99.90;;;;;;5016188;28;20564;-75
2022/05/13 03:18:22;;;;;;;5.35;1.65;;;21.00;99.90;;;;;;5016412;28;20632;-75
2022/05/13 03:20:49;;;;;;;6.13;1.60;;;21.00;99.90;;;;;;5016469;28;20288;-75
2022/05/13 03:23:17;;;;;;;12.50;2.15;;;21.00;99.90;;;;;;5016095;28;20226;-76
2022/05/13 03:25:44;;;;;;;5.05;1.48;;;21.00;99.90;;;;;;5016056;28;20296;-76
2022/05/13 03:28:11;;;;;;;1.88;1.20;;;20.90;99.90;;;;;;5016297;28;20227;-76
2022/05/13 03:30:39;;;;;;;2.22;1.30;;;21.00;99.90;;;;;;5016381;28;20259;-76
2022/05/13 03:33:06;;;;;;;1.38;1.20;;;20.90;99.90;;;;;;5016145;28;20231;-76
2022/05/13 03:35:33;;;;;;;3.90;1.10;;;20.90;99.90;;;;;;5015930;28;20205;-76
2022/05/13 03:38:00;;;;;;;1.48;1.38;;;20.90;99.90;;;;;;5016080;28;20296;-76
2022/05/13 03:40:28;;;;;;;2.55;1.05;;;20.90;99.90;;;;;;5016118;28;20211;-76
2022/05/13 03:42:55;;;;;;;1.92;0.80;;;20.90;99.90;;;;;;5015689;28;20233;-76
2022/05/13 03:45:22;;;;;;;10.80;1.42;;;20.90;99.90;;;;;;5015744;28;20207;-76
2022/05/13 03:47:49;;;;;;;0.98;0.80;;;20.90;99.90;;;;;;5015609;28;20701;-76
2022/05/13 03:50:17;;;;;;;1.20;0.75;;;20.90;99.90;;;;;;5015907;28;20616;-76
2022/05/13 03:52:44;;;;;;;2.83;0.90;;;20.90;99.90;;;;;;5015419;28;20701;-76
2022/05/13 03:55:11;;;;;;;0.70;0.70;;;20.80;99.90;;;;;;5014963;28;20767;-76
2022/05/13 03:57:39;;;;;;;1.00;0.90;;;20.90;99.90;;;;;;5015917;28;20296;-75
2022/05/13 04:00:09;;;;;;;0.70;0.70;;;20.90;99.90;;;;;;5016026;28;20293;-75
2022/05/13 04:02:36;;;;;;;1.73;1.00;;;20.90;99.90;;;;;;5015581;28;20248;-75
2022/05/13 04:10:32;;;;;;;1.17;1.05;;;20.90;99.90;;;;;;5015533;28;20293;-74
2022/05/13 04:18:28;;;;;;;3.50;0.75;;;20.90;99.90;;;;;;5014999;28;20323;-74
2022/05/13 04:20:55;;;;;;;2.35;0.93;;;21.00;99.90;;;;;;5014855;28;20665;-74
2022/05/13 04:23:23;;;;;;;5.32;0.85;;;20.90;99.90;;;;;;5015006;28;20221;-74
2022/05/13 04:25:50;;;;;;;3.63;1.00;;;21.00;99.90;;;;;;5014978;28;20212;-76
2022/05/13 04:28:18;;;;;;;3.50;1.00;;;20.90;99.90;;;;;;5014625;28;20213;-75
2022/05/13 04:30:45;;;;;;;5.35;1.35;;;21.00;99.90;;;;;;5014894;28;20313;-74
2022/05/13 04:33:13;;;;;;;9.48;1.27;;;21.00;99.90;;;;;;5015137;28;20643;-76
2022/05/13 04:35:40;;;;;;;1.60;1.08;;;21.00;99.90;;;;;;5014620;28;20596;-76
2022/05/13 04:38:07;;;;;;;4.85;1.00;;;21.00;99.90;;;;;;5015444;28;20340;-77
2022/05/13 04:40:34;;;;;;;7.00;1.67;;;21.00;99.90;;;;;;5015384;28;20197;-77
2022/05/13 04:43:00;;;;;;;19.05;2.20;;;20.90;99.90;;;;;;5014526;28;20225;-76
2022/05/13 04:45:31;;;;;;;12.10;2.80;;;20.90;99.90;;;;;;5014816;28;20252;-76
2022/05/13 04:48:18;;;;;;;8.52;1.60;;;21.00;99.90;;;;;;5014740;28;20281;-75
2022/05/13 04:50:51;;;;;;;12.30;2.65;;;20.90;99.90;;;;;;5014637;28;20711;-75
2022/05/13 04:53:21;;;;;;;3.75;2.55;;;20.90;99.90;;;;;;5014699;28;20591;-76
2022/05/13 04:55:49;;;;;;;3.30;2.58;;;20.90;99.90;;;;;;5015432;28;20205;-72
2022/05/13 04:58:15;;;;;;;17.15;2.58;;;20.90;99.90;;;;;;5015273;28;20280;-71
2022/05/13 05:00:44;;;;;;;9.60;2.53;;;20.90;99.90;;;;;;5014208;28;20755;-71
2022/05/13 05:03:11;;;;;;;18.50;3.53;;;20.90;99.90;;;;;;5014429;28;20307;-70
2022/05/13 05:05:38;;;;;;;12.20;3.80;;;20.90;99.90;;;;;;5013715;28;20209;-70
2022/05/13 05:08:05;;;;;;;9.80;3.35;;;20.90;99.90;;;;;;5014350;28;20197;-71
2022/05/13 05:10:32;;;;;;;17.08;3.25;;;20.80;99.90;;;;;;5014407;28;20205;-71
2022/05/13 05:12:59;;;;;;;20.92;3.55;;;20.80;99.90;;;;;;5013989;28;20308;-71
2022/05/13 05:15:27;;;;;;;14.75;3.25;;;20.80;99.90;;;;;;5013976;28;20300;-70
2022/05/13 05:17:56;;;;;;;13.45;3.08;;;20.90;99.90;;;;;;5014281;28;20279;-70
2022/05/13 05:20:23;;;;;;;13.77;3.13;;;20.90;99.90;;;;;;5014292;28;20227;-70
2022/05/13 05:22:50;;;;;;;16.58;2.70;;;20.80;99.90;;;;;;5014107;28;20235;-70
2022/05/13 05:25:19;;;;;;;14.35;3.45;;;20.80;99.90;;;;;;5014176;28;20620;-70
2022/05/13 05:27:46;;;;;;;14.85;3.22;;;20.80;99.90;;;;;;5014094;28;20231;-70
2022/05/13 05:30:15;;;;;;;10.65;3.63;;;20.80;99.90;;;;;;5013961;28;20229;-70
2022/05/13 05:32:42;;;;;;;16.80;3.50;;;20.80;99.90;;;;;;5013880;28;20221;-70
2022/05/13 05:35:14;;;;;;;15.35;2.70;;;20.80;99.90;;;;;;5013968;28;20204;-70
2022/05/13 05:37:40;;;;;;;11.20;3.10;;;20.80;99.90;;;;;;5013993;28;20551;-70
2022/05/13 05:40:09;;;;;;;8.43;2.42;;;20.80;99.90;;;;;;5013636;28;20288;-70
2022/05/13 05:42:36;;;;;;;6.25;2.67;;;20.80;99.90;;;;;;5013414;28;20237;-70
2022/05/13 05:45:04;;;;;;;7.40;3.35;;;20.80;99.90;;;;;;5013640;28;20292;-70
2022/05/13 05:47:31;;;;;;;14.13;2.60;;;20.80;99.90;;;;;;5013655;28;20202;-70
2022/05/13 05:49:59;;;;;;;11.07;2.97;;;20.80;99.90;;;;;;5013773;28;20225;-70
2022/05/13 05:52:27;;;;;;;9.93;2.97;;;20.80;99.90;;;;;;5013788;28;20226;-71
2022/05/13 05:57:38;;;;;;;6.70;2.60;;;20.80;99.90;;;;;;5013570;28;20188;-71
2022/05/13 06:00:07;;;;;;;13.75;2.47;;;20.80;99.90;;;;;;5013414;28;20197;-71
2022/05/13 06:02:34;;;;;;;11.57;2.55;;;20.80;99.90;;;;;;5013370;28;20308;-71
2022/05/13 06:05:01;;;;;;;7.65;2.30;;;20.80;99.90;;;;;;5013698;28;20208;-71
2022/05/13 06:07:29;;;;;;;4.28;2.83;;;20.70;99.90;;;;;;5013628;28;20240;-71
2022/05/13 06:09:56;;;;;;;9.52;2.75;;;20.70;99.90;;;;;;5013328;28;20228;-71
2022/05/13 06:12:23;;;;;;;8.02;3.20;;;20.70;99.90;;;;;;5013314;28;20651;-71
2022/05/13 06:14:50;;;;;;;6.30;2.85;;;20.80;99.90;;;;;;5013669;28;20204;-71
2022/05/13 06:17:17;;;;;;;6.32;3.05;;;20.70;99.90;;;;;;5014529;28;20233;-71
2022/05/13 06:19:44;;;;;;;5.20;2.53;;;20.80;99.90;;;;;;5017583;28;20701;-71
2022/05/13 06:22:11;;;;;;;6.35;3.05;;;20.70;99.90;;;;;;5017435;28;20312;-71
2022/05/13 06:24:39;;;;;;;6.28;2.45;;;20.70;99.90;;;;;;5017453;28;20288;-71
2022/05/13 06:27:06;;;;;;;5.68;2.58;;;20.70;99.90;;;;;;5017405;28;20205;-71
2022/05/13 06:29:35;;;;;;;5.05;2.35;;;20.80;99.90;;;;;;5017262;28;20225;-71
2022/05/13 06:32:01;;;;;;;3.53;2.45;;;20.70;99.90;;;;;;5017240;28;20253;-71
2022/05/13 06:34:28;;;;;;;4.32;2.22;;;20.80;99.90;;;;;;5017258;28;20207;-71
2022/05/13 06:36:55;;;;;;;4.15;2.50;;;20.70;99.90;;;;;;5017234;28;20296;-71
2022/05/13 06:39:22;;;;;;;3.95;2.35;;;20.70;99.90;;;;;;5017151;28;20284;-71
2022/05/13 06:41:50;;;;;;;4.40;2.50;;;20.70;99.90;;;;;;5016942;28;20288;-71
2022/05/13 06:44:18;;;;;;;5.35;2.42;;;20.70;99.90;;;;;;5017167;28;20210;-71
2022/05/13 06:46:47;;;;;;;3.13;2.00;;;20.80;99.90;;;;;;5017070;28;20202;-71
2022/05/13 06:49:14;;;;;;;7.10;2.25;;;20.80;99.90;;;;;;5016914;28;20229;-71
2022/05/13 06:51:42;;;;;;;4.57;2.63;;;20.70;99.90;;;;;;5016895;28;20198;-71
2022/05/13 06:54:10;;;;;;;3.75;1.95;;;20.70;99.90;;;;;;5016606;28;20570;-71
2022/05/13 06:56:39;;;;;;;4.85;2.40;;;20.70;99.90;;;;;;5016883;28;20216;-71
2022/05/13 06:59:08;;;;;;;5.50;1.88;;;20.70;99.90;;;;;;5016809;28;20248;-71
2022/05/13 07:01:36;;;;;;;8.23;2.78;;;20.70;99.90;;;;;;5016674;28;20201;-71
2022/05/13 07:04:04;;;;;;;3.47;2.42;;;20.80;99.90;;;;;;5016477;28;20763;-71
2022/05/13 07:06:31;;;;;;;4.88;2.22;;;20.70;99.90;;;;;;5016709;28;20208;-71
2022/05/13 07:08:58;;;;;;;6.45;2.03;;;20.70;99.90;;;;;;5016525;28;20304;-71
2022/05/13 07:11:25;;;;;;;3.38;2.30;;;20.70;99.90;;;;;;5016269;28;20741;-71
2022/05/13 07:13:52;;;;;;;3.88;2.28;;;20.70;99.90;;;;;;5016175;28;20708;-71
2022/05/13 07:16:21;;;;;;;8.60;2.92;;;20.70;99.90;;;;;;5016153;28;20288;-71
2022/05/13 07:18:47;;;;;;;4.10;2.40;;;20.80;99.90;;;;;;5016450;28;20204;-71
2022/05/13 07:21:15;;;;;;;4.30;2.28;;;20.70;99.90;;;;;;5016426;28;20201;-71
2022/05/13 07:23:42;;;;;;;4.93;2.33;;;20.70;99.90;;;;;;5015980;28;20704;-71
2022/05/13 07:26:10;;;;;;;3.70;2.15;;;20.70;99.90;;;;;;5016023;28;20771;-71
2022/05/13 07:28:38;;;;;;;4.20;2.20;;;20.70;99.90;;;;;;5015400;28;20229;-71
2022/05/13 07:31:05;;;;;;;5.15;2.28;;;20.80;99.90;;;;;;5016226;28;20241;-71
2022/05/13 07:33:33;;;;;;;6.43;2.17;;;20.70;99.90;;;;;;5016137;28;20247;-71
2022/05/13 07:36:00;;;;;;;8.85;2.33;;;20.70;99.90;;;;;;5016147;28;20206;-71
2022/05/13 07:38:30;;;;;;;2.40;2.20;;;20.80;99.90;;;;;;5016111;28;20205;-71
2022/05/13 07:43:41;;;;;;;4.45;2.40;;;20.80;99.90;;;;;;5015667;28;20228;-71
2022/05/13 07:46:08;;;;;;;6.45;2.40;;;20.70;99.90;;;;;;5015940;28;20284;-71
2022/05/13 07:48:39;;;;;;;5.30;2.40;;;20.80;99.90;;;;;;5015622;28;20296;-71
2022/05/13 07:51:06;;;;;;;3.75;2.42;;;20.70;99.90;;;;;;5015582;28;20206;-71
2022/05/13 07:53:33;;;;;;;4.97;2.60;;;20.80;99.90;;;;;;5015774;28;20237;-71
2022/05/13 07:56:00;;;;;;;7.40;2.17;;;20.70;99.90;;;;;;5015787;28;20218;-71
2022/05/13 07:58:27;;;;;;;2.88;2.15;;;20.80;99.90;;;;;;5015738;28;20285;-71
2022/05/13 08:00:55;;;;;;;7.07;2.17;;;20.70;99.90;;;;;;5015399;28;20233;-71
2022/05/13 08:03:22;;;;;;;7.03;2.35;;;20.70;99.90;;;;;;5015530;28;20221;-71
2022/05/13 08:05:52;;;;;;;3.95;2.30;;;20.80;99.90;;;;;;5015252;28;20288;-71
2022/05/13 08:08:21;;;;;;;2.70;1.90;;;20.80;99.90;;;;;;5015519;28;20201;-71
2022/05/13 08:10:50;;;;;;;5.82;2.05;;;20.80;99.90;;;;;;5015419;28;20557;-71
2022/05/13 08:13:17;;;;;;;2.38;2.15;;;20.70;99.90;;;;;;5015408;28;20348;-71
2022/05/13 08:15:44;;;;;;;3.33;1.88;;;20.80;99.90;;;;;;5015381;28;20227;-71
2022/05/13 08:18:11;;;;;;;2.95;2.03;;;20.70;99.90;;;;;;5015032;28;20575;-71
2022/05/13 08:20:38;;;;;;;6.15;2.00;;;20.70;99.90;;;;;;5014998;28;20202;-71
2022/05/13 08:23:07;;;;;;;6.30;2.33;;;20.70;99.90;;;;;;5014883;28;20221;-71
2022/05/13 08:25:34;;;;;;;3.13;1.95;;;20.70;99.90;;;;;;5014924;28;20208;-71
2022/05/13 08:28:01;;;;;;;1.73;1.63;;;20.80;99.90;;;;;;5015204;28;20208;-71
2022/05/13 08:30:28;;;;;;;3.30;2.28;;;20.70;99.90;;;;;;5015090;28;20312;-71
2022/05/13 08:32:56;;;;;;;3.42;2.30;;;20.80;99.90;;;;;;5014690;28;20221;-71
2022/05/13 08:35:24;;;;;;;2.25;1.80;;;20.80;99.90;;;;;;5015022;28;20197;-71
2022/05/13 08:37:53;;;;;;;4.90;1.98;;;20.80;99.90;;;;;;5014963;28;20205;-71
2022/05/13 08:40:32;;;;;;;5.03;1.80;;;20.70;99.90;;;;;;5014828;28;20203;-71
2022/05/13 08:43:03;;;;;;;4.85;1.92;;;20.70;99.90;;;;;;5014403;28;20608;-72
2022/05/13 08:45:31;;;;;;;2.00;1.88;;;20.70;99.90;;;;;;5014971;28;20190;-73
2022/05/13 08:47:59;;;;;;;2.08;1.90;;;20.70;99.90;;;;;;5014839;28;20236;-73
2022/05/13 08:50:33;;;;;;;5.00;2.20;;;20.70;99.90;;;;;;5014421;28;20689;-73
2022/05/13 08:53:12;;;;;;;2.65;2.20;;;20.70;99.90;;;;;;5014954;28;20221;-72
2022/05/13 08:55:45;;;;;;;3.30;1.98;;;20.70;99.90;;;;;;5015208;28;20240;-75
2022/05/13 08:58:16;;;;;;;4.10;2.08;;;20.70;99.90;;;;;;5015047;28;20256;-74
2022/05/13 09:00:46;;;;;;;3.55;1.98;;;20.70;99.90;;;;;;5014994;28;20186;-74
2022/05/13 09:03:35;;;;;;;3.83;1.92;;;20.70;99.90;;;;;;5014677;28;20313;-74
2022/05/13 09:06:05;;;;;;;3.45;2.55;;;20.70;99.90;;;;;;5015277;28;20277;-73
2022/05/13 09:08:33;;;;;;;3.47;1.80;;;20.70;99.90;;;;;;5014915;28;20661;-73
2022/05/13 09:11:14;;;;;;;6.63;2.03;;;20.70;99.90;;;;;;5015527;28;20268;-73
2022/05/13 09:13:48;;;;;;;3.08;1.88;;;20.70;99.90;;;;;;5015311;28;20221;-74
2022/05/13 09:16:23;;;;;;;5.82;2.40;;;20.70;99.90;;;;;;5015260;28;20181;-74
2022/05/13 09:18:59;;;;;;;2.80;1.90;;;20.70;99.90;;;;;;5015556;28;20189;-74
2022/05/13 09:21:26;;;;;;;8.13;1.83;;;20.70;99.90;;;;;;5015135;28;20192;-75
2022/05/13 09:23:52;;;;;;;7.75;1.95;;;20.80;99.90;;;;;;5014728;28;20231;-74
2022/05/13 09:26:23;;;;;;;4.35;1.17;;;20.70;99.90;;;;;;5014262;28;20201;-72
2022/05/13 09:29:05;;;;;;;1.70;1.55;;;20.60;99.90;;;;;;5014447;28;20189;-72
2022/05/13 09:31:35;;;;;;;2.95;1.55;;;20.40;99.90;;;;;;5014284;28;20209;-73
2022/05/13 09:34:01;;;;;;;2.05;1.63;;;20.30;99.90;;;;;;5014150;28;20197;-73
2022/05/13 09:36:34;;;;;;;5.57;1.77;;;20.10;99.90;;;;;;5014193;28;20201;-72
2022/05/13 09:39:16;;;;;;;2.22;1.65;;;19.90;99.90;;;;;;5013926;28;20197;-73
2022/05/13 09:41:44;;;;;;;2.00;1.83;;;19.90;99.90;;;;;;5013897;28;20276;-73
2022/05/13 09:44:14;;;;;;;4.90;1.73;;;19.90;99.90;;;;;;5014018;28;20190;-73
2022/05/13 09:46:43;;;;;;;2.05;1.73;;;20.00;99.90;;;;;;5013706;28;20661;-73
2022/05/13 09:49:21;;;;;;;5.22;1.77;;;20.10;99.90;;;;;;5014204;28;20547;-72
2022/05/13 09:51:55;;;;;;;2.75;2.00;;;20.10;99.90;;;;;;5013599;28;20196;-72
2022/05/13 09:54:27;;;;;;;3.40;1.90;;;20.00;99.90;;;;;;5014267;28;20657;-72
2022/05/13 09:57:06;;;;;;;2.50;1.95;;;20.00;99.90;;;;;;5014668;28;20204;-72
2022/05/13 09:59:37;;;;;;;10.85;2.22;;;20.00;99.90;;;;;;5014055;28;20192;-72
2022/05/13 10:02:24;;;;;;;5.07;1.80;;;20.10;99.90;;;;;;5013768;28;20589;-72
2022/05/13 10:04:53;;;;;;;12.80;1.75;;;20.10;99.90;;;;;;5013951;28;20207;-71
2022/05/13 10:07:22;;;;;;;4.85;1.60;;;20.10;99.90;;;;;;5014030;28;20237;-71
2022/05/13 10:15:28;;;;;;;6.43;1.10;;;20.30;99.90;;;;;;5014280;28;20185;-73
2022/05/13 10:18:02;;;;;;;2.38;1.00;;;20.30;99.90;;;;;;5015184;28;20217;-70
2022/05/13 10:20:33;;;;;;;4.38;1.27;;;20.30;99.90;;;;;;5017341;28;20186;-69
2022/05/13 10:23:08;;;;;;;1.02;0.80;;;20.30;99.90;;;;;;5016515;28;20311;-70
2022/05/13 10:25:43;;;;;;;4.88;1.17;;;20.40;99.90;;;;;;5018896;28;20182;-71
2022/05/13 10:28:13;;;;;;;1.27;1.02;;;20.40;99.90;;;;;;5018397;28;20188;-70
2022/05/13 10:30:46;;;;;;;6.65;2.15;;;20.40;99.90;;;;;;5013898;28;20206;-70
2022/05/13 10:33:20;;;;;;;7.47;1.17;;;20.50;99.90;;;;;;5017391;28;20275;-70
2022/05/13 10:35:53;;;;;;;2.85;1.10;;;20.60;99.90;;;;;;5016378;28;20651;-71
2022/05/13 10:38:28;;;;;;;1.75;1.30;;;20.50;99.90;;;;;;5015087;28;20224;-71
2022/05/13 10:40:57;;;;;;;1.17;1.00;;;20.50;99.90;;;;;;5017616;28;20188;-71
2022/05/13 10:43:34;;;;;;;3.30;1.10;;;20.50;99.90;;;;;;5015940;28;20316;-69
2022/05/13 10:46:11;;;;;;;1.63;1.25;;;20.40;99.90;;;;;;5016363;28;20196;-71
2022/05/13 10:48:38;;;;;;;1.55;1.27;;;20.50;99.90;;;;;;5016733;28;20276;-73
2022/05/13 10:51:17;;;;;;;3.72;0.90;;;20.50;99.90;;;;;;5017321;28;20280;-72
2022/05/13 10:54:09;;;;;;;2.25;0.93;;;20.50;99.90;;;;;;5017030;28;20217;-72
2022/05/13 10:56:42;;;;;;;1.48;0.63;;;20.50;99.90;;;;;;5017103;28;20182;-72
2022/05/13 10:59:22;;;;;;;8.20;0.88;;;20.50;99.90;;;;;;5017018;28;20600;-72
2022/05/13 11:02:00;;;;;;;7.88;0.90;;;20.50;99.90;;;;;;5016888;28;20190;-73
2022/05/13 11:04:35;;;;;;;1.25;0.93;;;20.50;99.90;;;;;;5019058;28;20240;-74
2022/05/13 11:07:15;;;;;;;2.33;0.70;;;20.60;99.90;;;;;;5019671;28;20192;-73
2022/05/13 11:09:56;;;;;;;2.10;0.60;;;20.60;99.90;;;;;;5017098;28;20563;-73
2022/05/13 11:12:34;;;;;;;3.38;0.77;;;20.60;99.90;;;;;;5016724;28;20224;-73
2022/05/13 11:15:16;;;;;;;1.45;0.60;;;20.60;99.90;;;;;;5016446;28;20594;-72
2022/05/13 11:17:49;;;;;;;1.38;0.85;;;20.60;99.90;;;;;;5016291;28;20194;-73
2022/05/13 11:20:26;;;;;;;0.90;0.60;;;20.60;99.90;;;;;;5016923;28;20192;-72
2022/05/13 11:23:05;;;;;;;0.63;0.63;;;20.60;99.90;;;;;;5016573;28;20227;-72
2022/05/13 11:25:57;;;;;;;4.63;0.77;;;20.60;99.90;;;;;;5016644;28;20190;-73
2022/05/13 11:28:51;;;;;;;2.10;1.10;;;20.60;99.90;;;;;;5016467;28;20192;-72
2022/05/13 11:31:33;;;;;;;3.65;0.70;;;20.70;99.90;;;;;;5016359;28;20287;-73
2022/05/13 11:34:10;;;;;;;2.47;0.80;;;20.70;99.90;;;;;;5016240;28;20192;-73
2022/05/13 11:36:46;;;;;;;5.38;0.63;;;20.70;99.90;;;;;;5016751;28;20680;-75
2022/05/13 11:39:37;;;;;;;1.13;0.82;;;20.70;99.90;;;;;;5017318;28;20185;-75
2022/05/13 11:42:15;;;;;;;6.57;1.42;;;20.80;99.90;;;;;;5008900;28;20236;-74
2022/05/13 11:44:56;;;;;;;2.65;0.60;;;20.80;99.90;;;;;;5017200;28;20255;-75
2022/05/13 11:47:38;;;;;;;3.47;0.60;;;20.70;99.90;;;;;;5016467;28;20273;-75
2022/05/13 11:50:05;;;;;;;1.95;0.80;;;20.70;99.90;;;;;;5017315;28;20276;-75
2022/05/13 11:52:48;;;;;;;4.13;0.57;;;20.80;99.90;;;;;;5020474;28;20224;-75
2022/05/13 11:55:18;;;;;;;3.40;0.50;;;20.80;99.90;;;;;;5021449;28;20599;-75
2022/05/13 11:57:48;;;;;;;1.75;0.75;;;20.80;99.90;;;;;;5028284;28;20269;-74
2022/05/13 12:00:34;;;;;;;2.28;0.52;;;20.80;99.90;;;;;;5025877;28;20198;-76
2022/05/13 12:03:16;;;;;;;1.85;0.50;;;20.80;99.90;;;;;;5027405;28;20221;-74
2022/05/13 12:06:01;;;;;;;1.13;0.30;;;20.90;99.90;;;;;;5027460;28;20269;-75
2022/05/13 12:08:33;;;;;;;0.40;0.40;;;20.90;99.90;;;;;;5024383;28;20236;-74
2022/05/13 12:11:33;;;;;;;0.50;0.35;;;20.90;99.90;;;;;;5025979;28;20210;-74
2022/05/13 12:14:10;;;;;;;1.00;0.30;;;20.90;99.90;;;;;;5021481;28;20320;-72
2022/05/13 12:16:46;;;;;;;3.35;0.63;;;21.00;99.90;;;;;;5021129;28;20213;-72
2022/05/13 12:19:27;;;;;;;13.65;1.35;;;21.00;99.90;;;;;;5018136;28;20197;-72
2022/05/13 12:22:02;;;;;;;9.52;0.98;;;21.00;99.90;;;;;;5015543;28;20269;-73
2022/05/13 12:24:30;;;;;;;10.63;0.95;;;21.00;99.90;;;;;;5015470;28;20199;-75
2022/05/13 12:27:28;;;;;;;4.10;0.60;;;20.90;99.90;;;;;;5015328;28;20192;-74
2022/05/13 12:30:09;;;;;;;7.18;0.70;;;20.90;99.90;;;;;;5014609;28;20202;-74
2022/05/13 12:32:45;;;;;;;8.43;0.88;;;20.90;99.90;;;;;;5015534;28;20268;-75
2022/05/13 12:38:21;;;;;;;5.53;0.93;;;20.90;99.90;;;;;;5016200;28;20189;-78
2022/05/13 12:41:09;;;;;;;4.60;0.45;;;20.90;99.90;;;;;;5016173;28;20198;-78
2022/05/13 12:43:48;;;;;;;0.47;0.40;;;20.90;99.90;;;;;;5015117;28;20644;-76
2022/05/13 12:46:18;;;;;;;3.28;0.60;;;20.90;99.90;;;;;;5015633;28;20221;-74
2022/05/13 12:49:03;;;;;;;6.68;0.63;;;20.90;99.90;;;;;;5015379;28;20189;-74
2022/05/13 12:51:43;;;;;;;4.97;0.60;;;20.90;99.90;;;;;;5014912;28;20213;-74
2022/05/13 12:54:11;;;;;;;1.30;0.40;;;20.90;99.90;;;;;;5015589;28;20185;-74
2022/05/13 12:56:40;;;;;;;1.58;0.40;;;20.90;99.90;;;;;;5015534;28;20205;-71
2022/05/13 12:59:12;;;;;;;1.92;0.55;;;20.90;99.90;;;;;;5014587;28;20205;-73
2022/05/13 13:01:43;;;;;;;3.00;0.57;;;21.00;99.90;;;;;;5014866;28;20186;-74
2022/05/13 13:04:12;;;;;;;3.08;0.50;;;21.00;99.90;;;;;;5015090;28;20193;-72
2022/05/13 13:06:44;;;;;;;0.60;0.35;;;21.00;99.90;;;;;;5017018;28;20252;-75
2022/05/13 13:09:21;;;;;;;0.35;0.30;;;21.00;99.90;;;;;;5016287;28;20272;-73
2022/05/13 13:11:58;;;;;;;2.35;0.45;;;21.00;99.90;;;;;;5015981;28;20209;-75
2022/05/13 13:14:40;;;;;;;0.30;0.30;;;21.00;99.90;;;;;;5015385;28;20186;-75
2022/05/13 13:17:19;;;;;;;1.20;0.60;;;21.00;99.90;;;;;;5014251;28;20281;-75
2022/05/13 13:19:48;;;;;;;1.45;0.40;;;21.00;99.90;;;;;;5014513;28;20190;-75
2022/05/13 13:22:22;;;;;;;0.25;0.25;;;21.10;99.90;;;;;;5014506;28;20253;-74
2022/05/13 13:24:49;;;;;;;0.40;0.40;;;21.10;99.90;;;;;;5014520;28;20200;-75
2022/05/13 13:27:18;;;;;;;0.98;0.30;;;21.20;99.90;;;;;;5015485;28;20202;-76
2022/05/13 13:29:47;;;;;;;1.80;0.50;;;21.20;99.90;;;;;;5017467;28;20288;-76